createdAt,value
2022-11-28T00:01:29.905Z,28.90
2022-11-28T00:03:57.438Z,28.60
2022-11-28T00:06:26.906Z,26.73
2022-11-28T00:08:54.888Z,28.73
2022-11-28T00:11:22.265Z,26.93
2022-11-28T00:13:49.634Z,28.10
2022-11-28T00:16:22.055Z,27.20
2022-11-28T00:18:51.110Z,27.70
2022-11-28T00:21:19.618Z,27.83
2022-11-28T00:23:48.293Z,27.10
2022-11-28T00:26:24.721Z,26.50
2022-11-28T00:28:52.867Z,26.07
2022-11-28T00:31:24.628Z,24.67
2022-11-28T00:33:52.685Z,25.87
2022-11-28T00:36:21.545Z,26.80
2022-11-28T00:38:49.730Z,26.03
2022-11-28T00:41:20.107Z,25.00
2022-11-28T00:43:48.745Z,26.17
2022-11-28T00:46:17.096Z,25.33
2022-11-28T00:48:44.871Z,25.63
2022-11-28T00:51:19.509Z,25.40
2022-11-28T00:53:48.680Z,25.33
2022-11-28T00:56:18.591Z,24.03
2022-11-28T00:58:49.036Z,22.30
2022-11-28T01:01:19.865Z,22.40
2022-11-28T01:03:48.884Z,21.30
2022-11-28T01:06:34.548Z,22.13
2022-11-28T01:09:05.361Z,22.67
2022-11-28T01:11:32.974Z,21.90
2022-11-28T01:14:01.920Z,22.37
2022-11-28T01:16:29.981Z,21.47
2022-11-28T01:18:57.661Z,21.23
2022-11-28T01:21:25.483Z,23.17
2022-11-28T01:23:52.861Z,22.47
2022-11-28T01:26:23.260Z,20.07
2022-11-28T01:28:50.722Z,21.13
2022-11-28T01:31:20.568Z,21.27
2022-11-28T01:33:48.485Z,21.63
2022-11-28T01:36:16.729Z,20.43
2022-11-28T01:38:44.608Z,21.10
2022-11-28T01:41:12.332Z,20.93
2022-11-28T01:44:01.811Z,20.23
2022-11-28T01:46:30.199Z,21.13
2022-11-28T01:49:07.577Z,21.83
2022-11-28T01:51:36.201Z,21.03
2022-11-28T01:54:04.004Z,20.70
2022-11-28T01:56:47.802Z,21.47
2022-11-28T01:59:16.054Z,19.93
2022-11-28T02:01:44.843Z,20.60
2022-11-28T02:04:14.082Z,20.80
2022-11-28T02:06:42.301Z,20.20
2022-11-28T02:09:14.265Z,19.70
2022-11-28T02:11:50.534Z,20.90
2022-11-28T02:14:42.335Z,20.00
2022-11-28T02:17:46.201Z,19.60
2022-11-28T02:20:19.773Z,20.70
2022-11-28T02:22:55.827Z,20.63
2022-11-28T02:25:38.307Z,19.93
2022-11-28T02:28:43.614Z,19.13
2022-11-28T02:31:24.495Z,19.33
2022-11-28T02:34:06.125Z,20.03
2022-11-28T02:36:45.010Z,19.37
2022-11-28T02:39:35.797Z,19.73
2022-11-28T02:42:10.707Z,19.43
2022-11-28T02:44:52.567Z,20.33
2022-11-28T02:47:33.938Z,18.63
2022-11-28T02:50:13.106Z,19.20
2022-11-28T02:52:42.438Z,19.33
2022-11-28T02:55:10.875Z,18.37
2022-11-28T02:57:47.671Z,18.10
2022-11-28T03:00:34.056Z,18.57
2022-11-28T03:03:27.226Z,18.40
2022-11-28T03:06:18.840Z,18.90
2022-11-28T03:09:13.864Z,18.33
2022-11-28T03:11:52.502Z,18.37
2022-11-28T03:14:38.282Z,17.83
2022-11-28T03:17:19.247Z,17.60
2022-11-28T03:19:49.606Z,17.40
2022-11-28T03:22:32.844Z,17.53
2022-11-28T03:25:25.139Z,18.70
2022-11-28T03:28:06.032Z,17.17
2022-11-28T03:30:44.668Z,17.90
2022-11-28T03:33:14.137Z,17.43
2022-11-28T03:35:49.844Z,17.93
2022-11-28T03:38:32.187Z,16.60
2022-11-28T03:41:07.124Z,17.67
2022-11-28T03:43:41.440Z,17.07
2022-11-28T03:46:13.952Z,17.40
2022-11-28T03:48:46.390Z,16.97
2022-11-28T03:51:35.472Z,17.57
2022-11-28T03:54:05.909Z,17.00
2022-11-28T03:56:41.969Z,16.80
2022-11-28T03:59:19.827Z,16.97
2022-11-28T04:01:53.045Z,17.07
2022-11-28T04:04:30.428Z,17.70
2022-11-28T04:07:34.270Z,16.77
2022-11-28T04:10:12.624Z,16.90
2022-11-28T04:13:02.797Z,17.13
2022-11-28T04:15:56.709Z,16.30
2022-11-28T04:18:38.187Z,16.50
2022-11-28T04:21:25.384Z,16.10
2022-11-28T04:23:56.520Z,15.80
2022-11-28T04:26:30.496Z,16.57
2022-11-28T04:29:00.316Z,16.10
2022-11-28T04:31:28.584Z,15.63
2022-11-28T04:34:01.044Z,15.57
2022-11-28T04:36:30.256Z,15.43
2022-11-28T04:38:59.547Z,15.77
2022-11-28T04:41:33.583Z,15.63
2022-11-28T04:44:27.984Z,15.67
2022-11-28T04:46:56.619Z,15.80
2022-11-28T04:49:27.505Z,15.70
2022-11-28T04:52:00.674Z,15.83
2022-11-28T04:54:30.895Z,15.50
2022-11-28T04:57:03.963Z,15.13
2022-11-28T04:59:35.197Z,15.00
2022-11-28T05:02:04.896Z,15.07
2022-11-28T05:04:37.347Z,14.50
2022-11-28T05:07:07.158Z,14.47
2022-11-28T05:09:35.175Z,14.60
2022-11-28T05:12:03.424Z,14.73
2022-11-28T05:14:30.834Z,14.37
2022-11-28T05:16:58.201Z,13.83
2022-11-28T05:19:25.552Z,14.50
2022-11-28T05:21:55.572Z,14.07
2022-11-28T05:24:25.727Z,13.67
2022-11-28T05:26:56.518Z,14.13
2022-11-28T05:29:25.429Z,13.43
2022-11-28T05:31:52.881Z,14.23
2022-11-28T05:34:20.295Z,13.30
2022-11-28T05:36:47.637Z,13.43
2022-11-28T05:39:14.982Z,13.87
2022-11-28T05:41:42.355Z,13.87
2022-11-28T05:44:10.288Z,13.37
2022-11-28T05:46:37.697Z,13.27
2022-11-28T05:49:05.075Z,12.77
2022-11-28T05:51:32.760Z,12.67
2022-11-28T05:54:00.124Z,13.33
2022-11-28T05:56:27.507Z,13.33
2022-11-28T05:58:55.176Z,12.60
2022-11-28T06:01:28.799Z,12.83
2022-11-28T06:04:00.973Z,13.17
2022-11-28T06:06:30.970Z,12.57
2022-11-28T06:08:58.987Z,12.27
2022-11-28T06:11:29.583Z,12.90
2022-11-28T06:13:57.143Z,13.70
2022-11-28T06:16:26.800Z,13.77
2022-11-28T06:18:55.868Z,13.17
2022-11-28T06:21:23.748Z,12.67
2022-11-28T06:23:51.503Z,13.40
2022-11-28T06:26:21.566Z,12.63
2022-11-28T06:28:49.684Z,12.33
2022-11-28T06:31:19.759Z,12.87
2022-11-28T06:33:47.540Z,13.40
2022-11-28T06:36:16.505Z,13.17
2022-11-28T06:38:44.256Z,13.43
2022-11-28T06:41:15.736Z,12.97
2022-11-28T06:43:43.318Z,13.40
2022-11-28T06:46:19.732Z,13.93
2022-11-28T06:48:49.224Z,13.50
2022-11-28T06:51:17.850Z,13.63
2022-11-28T06:53:45.216Z,13.30
2022-11-28T06:56:19.057Z,13.03
2022-11-28T06:58:47.030Z,13.33
2022-11-28T07:01:15.941Z,13.07
2022-11-28T07:03:44.669Z,13.60
2022-11-28T07:06:14.148Z,13.60
2022-11-28T07:08:42.433Z,13.73
2022-11-28T07:11:15.905Z,13.13
2022-11-28T07:13:45.901Z,13.03
2022-11-28T07:16:29.082Z,12.80
2022-11-28T07:18:57.271Z,13.37
2022-11-28T07:21:25.419Z,13.50
2022-11-28T07:23:53.413Z,13.63
2022-11-28T07:26:22.134Z,13.17
2022-11-28T07:28:50.329Z,13.20
2022-11-28T07:31:25.483Z,13.30
2022-11-28T07:33:53.005Z,12.80
2022-11-28T07:36:23.453Z,14.17
2022-11-28T07:38:56.191Z,13.80
2022-11-28T07:41:26.984Z,13.87
2022-11-28T07:44:00.047Z,13.80
2022-11-28T07:46:29.393Z,14.53
2022-11-28T07:48:57.284Z,13.70
2022-11-28T07:51:27.300Z,13.47
2022-11-28T07:53:54.930Z,13.63
2022-11-28T07:56:25.034Z,14.43
2022-11-28T07:58:52.847Z,14.50
2022-11-28T08:01:23.340Z,13.43
2022-11-28T08:03:52.160Z,14.90
2022-11-28T08:06:21.834Z,14.53
2022-11-28T08:08:49.844Z,14.50
2022-11-28T08:11:18.894Z,13.80
2022-11-28T08:13:46.485Z,13.97
2022-11-28T08:16:22.695Z,13.37
2022-11-28T08:18:51.368Z,14.07
2022-11-28T08:21:24.940Z,13.87
2022-11-28T08:23:53.719Z,13.93
2022-11-28T08:26:27.483Z,13.80
2022-11-28T08:28:56.628Z,13.40
2022-11-28T08:31:27.106Z,13.33
2022-11-28T08:33:56.087Z,14.23
2022-11-28T08:36:23.485Z,12.50
2022-11-28T08:39:03.898Z,13.43
2022-11-28T08:41:41.566Z,13.50
2022-11-28T08:44:09.409Z,13.73
2022-11-28T08:46:37.049Z,12.17
2022-11-28T08:49:04.858Z,14.37
2022-11-28T08:51:32.390Z,21.97
2022-11-28T08:54:00.184Z,19.83
2022-11-28T08:56:28.328Z,15.77
2022-11-28T08:58:59.646Z,14.80
2022-11-28T09:01:28.001Z,15.00
2022-11-28T09:03:56.853Z,15.63
2022-11-28T09:06:25.098Z,15.33
2022-11-28T09:08:53.968Z,13.13
2022-11-28T09:11:22.874Z,13.13
2022-11-28T09:13:50.862Z,12.83
2022-11-28T09:16:18.614Z,11.43
2022-11-28T09:18:46.087Z,11.77
2022-11-28T09:21:15.503Z,12.67
2022-11-28T09:23:44.775Z,12.27
2022-11-28T09:26:24.685Z,15.77
2022-11-28T09:28:54.128Z,12.00
2022-11-28T09:31:21.851Z,11.67
2022-11-28T09:33:49.535Z,11.97
2022-11-28T09:36:19.990Z,12.87
2022-11-28T09:38:47.882Z,11.40
2022-11-28T09:41:32.239Z,10.87
2022-11-28T09:44:07.363Z,11.83
2022-11-28T09:46:37.482Z,11.80
2022-11-28T09:49:19.285Z,12.57
2022-11-28T09:52:18.894Z,11.03
2022-11-28T09:55:12.753Z,10.47
2022-11-28T09:57:47.935Z,10.77
2022-11-28T10:00:33.962Z,11.40
2022-11-28T10:03:16.160Z,10.97
2022-11-28T10:06:09.204Z,10.90
2022-11-28T10:09:06.860Z,10.60
2022-11-28T10:12:06.639Z,10.73
2022-11-28T10:15:08.839Z,11.17
2022-11-28T10:17:56.404Z,10.27
2022-11-28T10:20:27.808Z,11.30
2022-11-28T10:23:01.263Z,14.20
2022-11-28T10:25:41.160Z,14.27
2022-11-28T10:28:16.699Z,14.40
2022-11-28T10:30:51.415Z,11.53
2022-11-28T10:33:26.975Z,11.20
2022-11-28T10:36:02.700Z,21.40
2022-11-28T10:38:34.231Z,10.90
2022-11-28T10:41:06.776Z,9.03
2022-11-28T10:43:59.538Z,8.30
2022-11-28T10:47:07.077Z,7.27
2022-11-28T10:49:53.260Z,7.97
2022-11-28T10:52:29.428Z,9.40
2022-11-28T10:55:33.353Z,10.80
2022-11-28T10:58:24.052Z,10.00
2022-11-28T11:00:56.891Z,10.90
2022-11-28T11:03:31.070Z,9.40
2022-11-28T11:05:59.754Z,8.67
2022-11-28T11:08:29.948Z,8.50
2022-11-28T11:11:33.591Z,7.80
2022-11-28T11:14:02.193Z,8.07
2022-11-28T11:16:55.900Z,8.60
2022-11-28T11:19:34.030Z,8.10
2022-11-28T11:22:05.660Z,9.17
2022-11-28T11:24:33.775Z,9.43
2022-11-28T11:27:18.326Z,9.03
2022-11-28T11:29:48.210Z,8.53
2022-11-28T11:32:29.827Z,8.13
2022-11-28T11:34:58.585Z,7.63
2022-11-28T11:37:28.899Z,8.30
2022-11-28T11:39:56.301Z,9.60
2022-11-28T11:42:26.668Z,8.77
2022-11-28T11:44:54.580Z,9.53
2022-11-28T11:47:42.553Z,9.03
2022-11-28T11:50:18.582Z,10.57
2022-11-28T11:53:00.832Z,11.70
2022-11-28T11:55:30.811Z,10.47
2022-11-28T11:58:05.523Z,10.83
2022-11-28T12:00:39.998Z,10.83
2022-11-28T12:03:23.697Z,10.23
2022-11-28T12:06:14.056Z,10.83
2022-11-28T12:09:07.263Z,8.98
2022-11-28T12:11:46.562Z,9.47
2022-11-28T12:14:23.566Z,10.70
2022-11-28T12:17:46.923Z,8.70
2022-11-28T12:20:11.224Z,10.90
2022-11-28T12:23:03.392Z,13.13
2022-11-28T12:26:09.976Z,14.02
2022-11-28T12:29:01.650Z,13.27
2022-11-28T12:31:36.465Z,13.23
2022-11-28T12:34:45.556Z,14.70
2022-11-28T12:37:22.136Z,15.07
2022-11-28T12:40:10.532Z,14.80
2022-11-28T12:43:07.113Z,15.17
2022-11-28T12:45:42.891Z,15.70
2022-11-28T12:48:40.579Z,15.60
2022-11-28T12:51:45.934Z,15.73
2022-11-28T12:54:34.212Z,15.37
2022-11-28T12:57:10.127Z,16.20
2022-11-28T12:59:51.970Z,15.83
2022-11-28T13:02:57.219Z,15.10
2022-11-28T13:05:49.188Z,15.07
2022-11-28T13:08:22.549Z,16.00
2022-11-28T13:11:31.732Z,15.20
2022-11-28T13:14:27.620Z,15.30
2022-11-28T13:16:58.473Z,15.70
2022-11-28T13:19:41.763Z,15.17
2022-11-28T13:22:38.112Z,15.53
2022-11-28T13:25:43.619Z,15.50
2022-11-28T13:28:23.715Z,15.10
2022-11-28T13:30:56.256Z,16.30
2022-11-28T13:33:59.111Z,15.53
2022-11-28T13:40:07.777Z,15.73
2022-11-28T13:43:17.959Z,16.00
2022-11-28T13:45:47.017Z,15.47
2022-11-28T13:51:35.765Z,15.50
2022-11-28T13:54:19.205Z,15.47
2022-11-28T13:57:03.594Z,16.10
2022-11-28T13:59:31.782Z,16.33
2022-11-28T14:02:03.296Z,15.60
2022-11-28T14:04:32.772Z,15.67
2022-11-28T14:07:07.717Z,16.63
2022-11-28T14:10:07.376Z,16.07
2022-11-28T14:13:12.348Z,16.50
2022-11-28T14:16:11.336Z,16.10
2022-11-28T14:19:02.797Z,16.03
2022-11-28T14:21:46.830Z,15.27
2022-11-28T14:24:48.504Z,15.77
2022-11-28T14:27:25.229Z,15.37
2022-11-28T14:29:55.621Z,15.93
2022-11-28T14:32:37.914Z,15.87
2022-11-28T14:35:15.422Z,16.27
2022-11-28T14:37:56.137Z,15.17
2022-11-28T14:40:59.271Z,16.80
2022-11-28T14:43:36.910Z,15.90
2022-11-28T14:46:16.346Z,17.17
2022-11-28T14:48:59.124Z,17.17
2022-11-28T14:51:48.511Z,16.07
2022-11-28T14:54:37.985Z,16.30
2022-11-28T14:57:32.974Z,16.17
2022-11-28T15:00:08.179Z,16.67
2022-11-28T15:03:02.340Z,17.43
2022-11-28T15:05:49.882Z,16.43
2022-11-28T15:08:46.149Z,16.47
2022-11-28T15:11:41.066Z,16.50
2022-11-28T15:14:20.660Z,16.70
2022-11-28T15:16:54.804Z,16.70
2022-11-28T15:19:33.438Z,16.73
2022-11-28T15:22:01.677Z,16.13
2022-11-28T15:24:37.603Z,16.53
2022-11-28T15:27:07.975Z,17.60
2022-11-28T15:29:36.742Z,17.10
2022-11-28T15:32:07.701Z,16.93
2022-11-28T15:34:37.554Z,16.13
2022-11-28T15:37:07.643Z,17.30
2022-11-28T15:39:40.336Z,17.30
2022-11-28T15:42:23.933Z,16.40
2022-11-28T15:45:00.315Z,17.40
2022-11-28T15:47:28.842Z,16.90
2022-11-28T15:50:29.923Z,17.37
2022-11-28T15:53:02.028Z,17.27
2022-11-28T15:55:33.167Z,17.23
2022-11-28T15:58:30.307Z,17.87
2022-11-28T16:01:25.722Z,16.70
2022-11-28T16:04:07.830Z,17.43
2022-11-28T16:06:38.597Z,18.00
2022-11-28T16:09:23.496Z,16.63
2022-11-28T16:11:55.779Z,17.80
2022-11-28T16:14:33.082Z,18.77
2022-11-28T16:17:04.982Z,18.70
2022-11-28T16:19:39.695Z,17.77
2022-11-28T16:22:17.267Z,19.47
2022-11-28T16:24:47.998Z,19.40
2022-11-28T16:27:37.781Z,20.27
2022-11-28T16:30:26.905Z,19.50
2022-11-28T16:32:59.354Z,18.80
2022-11-28T16:35:28.992Z,20.70
2022-11-28T16:38:18.266Z,20.47
2022-11-28T16:40:46.409Z,21.00
2022-11-28T16:43:22.090Z,20.47
2022-11-28T16:46:01.286Z,19.67
2022-11-28T16:48:35.340Z,20.10
2022-11-28T16:51:03.115Z,19.83
2022-11-28T16:54:00.889Z,19.83
2022-11-28T16:56:31.613Z,19.77
2022-11-28T16:59:08.067Z,19.50
2022-11-28T17:01:36.715Z,20.37
2022-11-28T17:04:05.669Z,20.17
2022-11-28T17:06:38.031Z,21.07
2022-11-28T17:09:07.948Z,21.50
2022-11-28T17:11:38.839Z,20.63
2022-11-28T17:14:13.046Z,21.13
2022-11-28T17:16:43.034Z,22.13
2022-11-28T17:19:12.855Z,21.77
2022-11-28T17:21:51.413Z,21.70
2022-11-28T17:24:25.601Z,21.27
2022-11-28T17:26:54.872Z,20.40
2022-11-28T17:29:23.389Z,20.83
2022-11-28T17:31:55.301Z,20.87
2022-11-28T17:34:28.902Z,20.57
2022-11-28T17:36:58.475Z,20.63
2022-11-28T17:39:28.718Z,20.03
2022-11-28T17:42:00.753Z,19.73
2022-11-28T17:44:34.226Z,20.50
2022-11-28T17:47:04.725Z,18.87
2022-11-28T17:49:39.592Z,21.17
2022-11-28T17:52:11.779Z,20.07
2022-11-28T17:54:40.873Z,19.77
2022-11-28T17:57:10.061Z,20.70
2022-11-28T17:59:40.975Z,20.43
2022-11-28T18:02:11.542Z,20.03
2022-11-28T18:04:39.886Z,21.65
2022-11-28T18:07:12.536Z,21.40
2022-11-28T18:09:44.436Z,20.90
2022-11-28T18:12:14.942Z,19.87
2022-11-28T18:14:46.416Z,19.50
2022-11-28T18:17:14.827Z,21.17
2022-11-28T18:19:45.202Z,20.00
2022-11-28T18:22:17.049Z,19.43
2022-11-28T18:24:49.162Z,20.10
2022-11-28T18:27:17.633Z,21.03
2022-11-28T18:29:46.188Z,20.07
2022-11-28T18:32:15.708Z,19.10
2022-11-28T18:34:45.281Z,19.27
2022-11-28T18:37:13.842Z,18.97
2022-11-28T18:39:44.102Z,18.63
2022-11-28T18:42:18.515Z,17.87
2022-11-28T18:44:48.684Z,18.43
2022-11-28T18:47:20.974Z,18.40
2022-11-28T18:49:52.746Z,18.33
2022-11-28T18:52:20.891Z,18.33
2022-11-28T18:55:05.304Z,18.20
2022-11-28T18:57:38.120Z,18.47
2022-11-28T19:00:24.938Z,18.27
2022-11-28T19:03:00.871Z,18.30
2022-11-28T19:05:39.234Z,18.57
2022-11-28T19:08:15.621Z,18.97
2022-11-28T19:10:51.504Z,18.07
2022-11-28T19:13:24.897Z,18.53
2022-11-28T19:16:03.965Z,18.93
2022-11-28T19:18:40.322Z,18.90
2022-11-28T19:21:30.213Z,19.27
2022-11-28T19:24:02.856Z,20.00
2022-11-28T19:26:46.591Z,19.03
2022-11-28T19:29:33.715Z,18.80
2022-11-28T19:32:07.291Z,18.93
2022-11-28T19:37:39.603Z,19.50
2022-11-28T19:40:12.054Z,19.37
2022-11-28T19:42:49.719Z,19.07
2022-11-28T19:45:26.762Z,19.77
2022-11-28T19:48:04.184Z,20.50
2022-11-28T19:50:37.940Z,19.93
2022-11-28T19:53:19.638Z,21.43
2022-11-28T19:56:02.255Z,20.97
2022-11-28T19:58:35.019Z,20.80
2022-11-28T20:01:19.395Z,20.27
2022-11-28T20:04:01.662Z,20.23
2022-11-28T20:06:37.903Z,20.27
2022-11-28T20:09:14.479Z,20.43
2022-11-28T20:11:49.153Z,20.07
2022-11-28T20:14:27.155Z,20.47
2022-11-28T20:19:55.559Z,20.73
2022-11-28T20:22:26.203Z,21.37
2022-11-28T20:24:57.062Z,22.00
2022-11-28T20:27:33.194Z,22.43
2022-11-28T20:30:02.726Z,23.00
2022-11-28T20:32:34.589Z,22.43
2022-11-28T20:35:13.580Z,21.93
2022-11-28T20:37:46.543Z,23.07
2022-11-28T20:40:22.578Z,22.70
2022-11-28T20:42:52.683Z,22.33
2022-11-28T20:45:31.828Z,23.47
2022-11-28T20:48:11.669Z,24.23
2022-11-28T20:50:44.216Z,24.33
2022-11-28T20:53:26.566Z,24.70
2022-11-28T20:56:05.262Z,24.83
2022-11-28T20:58:41.277Z,26.33
2022-11-28T21:01:36.615Z,24.33
2022-11-28T21:04:17.973Z,24.70
2022-11-28T21:06:59.502Z,25.60
2022-11-28T21:09:32.829Z,24.23
2022-11-28T21:12:01.120Z,25.00
2022-11-28T21:14:35.003Z,23.53
2022-11-28T21:22:34.561Z,24.13
2022-11-28T21:25:03.564Z,25.67
2022-11-28T21:27:36.343Z,24.90
2022-11-28T21:30:08.372Z,25.20
2022-11-28T21:32:43.816Z,24.47
2022-11-28T21:35:16.312Z,23.90
2022-11-28T21:37:46.239Z,24.83
2022-11-28T21:40:19.757Z,25.30
2022-11-28T21:42:57.070Z,24.53
2022-11-28T21:45:31.370Z,23.83
2022-11-28T21:48:04.978Z,23.20
2022-11-28T21:50:37.527Z,23.03
2022-11-28T21:53:09.122Z,23.23
2022-11-28T21:55:44.982Z,23.10
2022-11-28T21:58:21.143Z,24.27
2022-11-28T22:01:02.878Z,22.83
2022-11-28T22:03:34.363Z,24.17
2022-11-28T22:06:33.238Z,23.30
2022-11-28T22:09:08.760Z,22.87
2022-11-28T22:11:51.807Z,23.00
2022-11-28T22:14:36.694Z,22.70
2022-11-28T22:20:00.880Z,24.17
2022-11-28T22:22:34.439Z,22.97
2022-11-28T22:25:09.222Z,23.43
2022-11-28T22:27:42.424Z,23.33
2022-11-28T22:30:16.048Z,21.83
2022-11-28T22:32:48.427Z,23.33
2022-11-28T22:35:22.727Z,22.97
2022-11-28T22:37:57.259Z,22.57
2022-11-28T22:40:29.022Z,22.60
2022-11-28T22:43:02.870Z,22.50
2022-11-28T22:45:34.979Z,22.57
2022-11-28T22:48:14.424Z,22.30
2022-11-28T22:50:51.018Z,21.87
2022-11-28T22:53:23.808Z,22.80
2022-11-28T22:55:56.792Z,21.50
2022-11-28T23:01:10.847Z,22.37
2022-11-28T23:06:32.783Z,22.53
2022-11-28T23:09:08.445Z,22.57
2022-11-28T23:11:50.178Z,21.80
2022-11-28T23:14:21.513Z,22.93
2022-11-28T23:16:52.473Z,23.17
2022-11-28T23:19:22.498Z,23.00
2022-11-28T23:21:53.481Z,23.77
2022-11-28T23:24:23.888Z,23.10
2022-11-28T23:26:52.871Z,23.07
2022-11-28T23:29:23.836Z,23.57
2022-11-28T23:31:53.853Z,22.43
2022-11-28T23:37:07.710Z,21.97
2022-11-28T23:39:38.845Z,22.67
2022-11-28T23:42:12.376Z,22.70
2022-11-28T23:44:52.487Z,22.63
2022-11-28T23:47:22.834Z,24.63
2022-11-28T23:49:56.379Z,24.57
2022-11-28T23:55:09.645Z,23.87
2022-11-28T23:57:49.249Z,24.50
